createdAt,value
2022-08-17T00:00:52.210Z,18.51
2022-08-17T00:01:52.632Z,18.56
2022-08-17T00:02:43.790Z,18.42
2022-08-17T00:03:42.762Z,18.41
2022-08-17T00:04:45.853Z,18.36
2022-08-17T00:05:42.728Z,18.44
2022-08-17T00:06:42.713Z,18.20
2022-08-17T00:07:42.748Z,18.34
2022-08-17T00:08:42.683Z,18.31
2022-08-17T00:09:42.671Z,18.14
2022-08-17T00:10:42.658Z,18.25
2022-08-17T00:11:42.643Z,18.20
2022-08-17T00:12:44.779Z,18.20
2022-08-17T00:13:42.612Z,18.20
2022-08-17T00:14:42.610Z,18.19
2022-08-17T00:15:42.591Z,18.20
2022-08-17T00:16:56.601Z,18.29
2022-08-17T00:17:43.589Z,18.19
2022-08-17T00:18:58.229Z,18.26
2022-08-17T00:19:43.562Z,18.25
2022-08-17T00:20:42.528Z,18.29
2022-08-17T00:22:32.060Z,18.35
2022-08-17T00:22:43.515Z,18.29
2022-08-17T00:23:47.792Z,18.32
2022-08-17T00:24:43.490Z,18.34
2022-08-17T00:25:42.450Z,18.34
2022-08-17T00:26:45.259Z,18.26
2022-08-17T00:27:42.422Z,18.28
2022-08-17T00:28:42.419Z,18.31
2022-08-17T00:29:42.401Z,18.20
2022-08-17T00:30:50.995Z,18.19
2022-08-17T00:31:43.399Z,18.17
2022-08-17T00:33:10.908Z,18.17
2022-08-17T00:33:43.374Z,18.19
2022-08-17T00:34:42.339Z,18.17
2022-08-17T00:35:42.322Z,18.16
2022-08-17T00:36:42.329Z,18.23
2022-08-17T00:37:42.295Z,18.10
2022-08-17T00:38:42.285Z,18.20
2022-08-17T00:39:42.305Z,18.11
2022-08-17T00:40:44.738Z,18.19
2022-08-17T00:41:42.805Z,18.14
2022-08-17T00:42:42.225Z,18.13
2022-08-17T00:43:42.208Z,18.11
2022-08-17T00:44:42.199Z,18.09
2022-08-17T00:45:42.182Z,18.07
2022-08-17T00:46:42.176Z,18.14
2022-08-17T00:47:42.160Z,18.11
2022-08-17T00:48:42.144Z,17.99
2022-08-17T00:49:42.137Z,18.09
2022-08-17T00:50:42.122Z,18.10
2022-08-17T00:51:42.103Z,18.11
2022-08-17T00:52:42.152Z,18.09
2022-08-17T00:53:42.080Z,18.09
2022-08-17T00:54:42.517Z,18.16
2022-08-17T00:55:42.048Z,18.13
2022-08-17T00:56:42.038Z,18.17
2022-08-17T00:57:42.029Z,18.09
2022-08-17T00:58:42.013Z,18.07
2022-08-17T00:59:41.995Z,17.98
2022-08-17T01:00:42.029Z,17.98
2022-08-17T01:01:41.964Z,18.04
2022-08-17T01:02:51.754Z,18.02
2022-08-17T01:03:42.969Z,17.96
2022-08-17T01:04:41.940Z,17.95
2022-08-17T01:05:42.257Z,18.01
2022-08-17T01:06:41.900Z,17.92
2022-08-17T01:07:41.887Z,17.96
2022-08-17T01:08:41.942Z,17.91
2022-08-17T01:09:41.859Z,17.91
2022-08-17T01:11:00.334Z,17.91
2022-08-17T01:11:42.865Z,17.94
2022-08-17T01:12:41.836Z,17.80
2022-08-17T01:13:42.023Z,17.89
2022-08-17T01:14:41.801Z,17.81
2022-08-17T01:15:41.783Z,17.83
2022-08-17T01:16:41.781Z,17.79
2022-08-17T01:17:41.759Z,17.77
2022-08-17T01:18:41.744Z,17.84
2022-08-17T01:19:41.728Z,17.79
2022-08-17T01:20:43.055Z,17.79
2022-08-17T01:21:42.722Z,17.84
2022-08-17T01:22:41.701Z,17.76
2022-08-17T01:23:41.670Z,17.74
2022-08-17T01:24:41.660Z,17.84
2022-08-17T01:25:41.647Z,17.76
2022-08-17T01:26:41.642Z,17.80
2022-08-17T01:27:41.622Z,17.79
2022-08-17T01:28:53.625Z,17.80
2022-08-17T01:29:42.621Z,17.74
2022-08-17T01:30:58.659Z,17.73
2022-08-17T01:31:42.595Z,17.77
2022-08-17T01:32:41.668Z,17.65
2022-08-17T01:33:41.549Z,17.63
2022-08-17T01:34:42.626Z,17.70
2022-08-17T01:35:41.514Z,17.79
2022-08-17T01:36:41.502Z,17.63
2022-08-17T01:37:41.482Z,17.62
2022-08-17T01:38:41.479Z,17.68
2022-08-17T01:39:41.515Z,17.74
2022-08-17T01:40:41.445Z,17.76
2022-08-17T01:41:41.430Z,17.66
2022-08-17T01:42:41.423Z,17.73
2022-08-17T01:43:41.412Z,17.79
2022-08-17T01:44:41.395Z,17.63
2022-08-17T01:45:41.376Z,17.76
2022-08-17T01:46:41.374Z,17.74
2022-08-17T01:47:41.350Z,17.76
2022-08-17T01:48:41.345Z,17.65
2022-08-17T01:49:41.325Z,17.70
2022-08-17T01:50:41.313Z,17.74
2022-08-17T01:51:41.300Z,17.74
2022-08-17T01:52:41.287Z,17.76
2022-08-17T01:53:41.276Z,17.73
2022-08-17T01:54:41.259Z,17.79
2022-08-17T01:55:41.244Z,17.66
2022-08-17T01:56:41.231Z,17.79
2022-08-17T01:57:41.215Z,17.79
2022-08-17T01:58:41.210Z,17.73
2022-08-17T01:59:41.221Z,17.70
2022-08-17T02:00:46.797Z,17.70
2022-08-17T02:01:42.254Z,17.54
2022-08-17T02:02:41.155Z,17.57
2022-08-17T02:03:41.130Z,17.58
2022-08-17T02:04:42.151Z,17.53
2022-08-17T02:05:41.104Z,17.57
2022-08-17T02:06:52.831Z,17.60
2022-08-17T02:08:00.015Z,17.58
2022-08-17T02:09:03.296Z,17.63
2022-08-17T02:09:42.240Z,17.58
2022-08-17T02:10:46.679Z,17.70
2022-08-17T02:11:41.030Z,17.57
2022-08-17T02:12:41.022Z,17.58
2022-08-17T02:13:41.001Z,17.54
2022-08-17T02:14:40.993Z,17.49
2022-08-17T02:15:40.972Z,17.63
2022-08-17T02:16:40.963Z,17.65
2022-08-17T02:17:40.952Z,17.63
2022-08-17T02:18:40.936Z,17.66
2022-08-17T02:19:40.923Z,17.70
2022-08-17T02:20:41.838Z,17.45
2022-08-17T02:21:40.893Z,17.58
2022-08-17T02:22:40.886Z,17.45
2022-08-17T02:23:40.884Z,17.35
2022-08-17T02:25:00.749Z,17.32
2022-08-17T02:25:41.866Z,17.25
2022-08-17T02:26:40.833Z,17.30
2022-08-17T02:27:40.824Z,17.33
2022-08-17T02:28:40.806Z,17.32
2022-08-17T02:29:40.792Z,17.22
2022-08-17T02:30:59.553Z,17.28
2022-08-17T02:31:41.779Z,17.21
2022-08-17T02:32:40.748Z,17.28
2022-08-17T02:33:43.100Z,17.30
2022-08-17T02:34:40.870Z,17.30
2022-08-17T02:35:40.704Z,17.24
2022-08-17T02:36:40.693Z,17.22
2022-08-17T02:37:40.679Z,17.33
2022-08-17T02:38:40.701Z,17.33
2022-08-17T02:39:40.712Z,17.36
2022-08-17T02:40:40.670Z,17.18
2022-08-17T02:41:40.628Z,17.20
2022-08-17T02:42:40.612Z,17.35
2022-08-17T02:43:40.605Z,17.25
2022-08-17T02:44:40.588Z,17.30
2022-08-17T02:45:40.583Z,17.17
2022-08-17T02:46:40.558Z,17.25
2022-08-17T02:47:40.544Z,17.24
2022-08-17T02:48:40.533Z,17.22
2022-08-17T02:49:46.275Z,17.12
2022-08-17T02:50:41.528Z,17.10
2022-08-17T02:51:40.491Z,17.06
2022-08-17T02:52:43.762Z,17.06
2022-08-17T02:53:40.465Z,17.07
2022-08-17T02:54:42.425Z,17.07
2022-08-17T02:55:40.443Z,17.10
2022-08-17T02:56:40.426Z,17.06
2022-08-17T02:57:40.419Z,17.05
2022-08-17T02:58:40.397Z,17.15
2022-08-17T02:59:42.377Z,17.07
2022-08-17T03:00:41.398Z,17.12
2022-08-17T03:01:40.503Z,16.96
2022-08-17T03:02:40.344Z,17.09
2022-08-17T03:03:40.333Z,17.05
2022-08-17T03:04:40.317Z,16.98
2022-08-17T03:05:40.308Z,16.92
2022-08-17T03:06:40.287Z,17.05
2022-08-17T03:07:40.277Z,16.98
2022-08-17T03:08:40.258Z,16.90
2022-08-17T03:09:40.250Z,16.84
2022-08-17T03:10:40.234Z,16.82
2022-08-17T03:11:40.228Z,16.84
2022-08-17T03:12:40.206Z,16.84
2022-08-17T03:13:40.201Z,16.69
2022-08-17T03:14:41.739Z,16.82
2022-08-17T03:15:40.634Z,16.85
2022-08-17T03:16:40.150Z,16.84
2022-08-17T03:17:40.147Z,16.90
2022-08-17T03:18:40.132Z,16.87
2022-08-17T03:19:42.950Z,16.80
2022-08-17T03:20:40.100Z,16.82
2022-08-17T03:21:40.087Z,16.90
2022-08-17T03:22:40.068Z,16.88
2022-08-17T03:23:40.062Z,16.80
2022-08-17T03:24:40.044Z,16.85
2022-08-17T03:25:40.044Z,16.91
2022-08-17T03:26:40.016Z,16.91
2022-08-17T03:27:40.007Z,16.80
2022-08-17T03:28:39.992Z,16.85
2022-08-17T03:29:39.979Z,16.96
2022-08-17T03:30:40.000Z,16.88
2022-08-17T03:31:39.953Z,16.95
2022-08-17T03:32:39.937Z,16.87
2022-08-17T03:33:39.924Z,16.98
2022-08-17T03:34:39.913Z,16.91
2022-08-17T03:35:39.904Z,16.91
2022-08-17T03:36:39.889Z,16.95
2022-08-17T03:37:39.874Z,16.92
2022-08-17T03:38:39.867Z,16.96
2022-08-17T03:39:39.873Z,16.91
2022-08-17T03:40:56.290Z,16.87
2022-08-17T03:41:40.839Z,16.81
2022-08-17T03:42:39.802Z,16.80
2022-08-17T03:43:39.787Z,16.88
2022-08-17T03:44:39.776Z,16.88
2022-08-17T03:45:39.768Z,16.84
2022-08-17T03:46:39.744Z,16.82
2022-08-17T03:47:39.734Z,16.70
2022-08-17T03:48:39.715Z,16.87
2022-08-17T03:49:39.710Z,16.75
2022-08-17T03:50:39.696Z,16.80
2022-08-17T03:51:39.686Z,16.75
2022-08-17T03:52:39.672Z,16.72
2022-08-17T03:53:39.665Z,16.81
2022-08-17T03:54:39.645Z,16.78
2022-08-17T03:55:39.627Z,16.77
2022-08-17T03:56:39.610Z,16.72
2022-08-17T03:57:39.604Z,16.73
2022-08-17T03:58:39.582Z,16.75
2022-08-17T03:59:39.575Z,16.60
2022-08-17T04:00:39.673Z,16.67
2022-08-17T04:01:39.604Z,16.57
2022-08-17T04:02:39.532Z,16.55
2022-08-17T04:03:39.521Z,16.57
2022-08-17T04:04:39.500Z,16.65
2022-08-17T04:05:39.491Z,16.59
2022-08-17T04:06:39.480Z,16.72
2022-08-17T04:07:39.470Z,16.73
2022-08-17T04:08:39.450Z,16.66
2022-08-17T04:09:39.459Z,16.55
2022-08-17T04:10:45.019Z,16.69
2022-08-17T04:11:39.412Z,16.69
2022-08-17T04:12:39.398Z,16.52
2022-08-17T04:13:39.386Z,16.59
2022-08-17T04:14:51.921Z,16.48
2022-08-17T04:15:40.375Z,16.50
2022-08-17T04:16:39.338Z,16.42
2022-08-17T04:17:39.326Z,16.44
2022-08-17T04:18:39.308Z,16.34
2022-08-17T04:19:39.306Z,16.34
2022-08-17T04:20:39.284Z,16.30
2022-08-17T04:21:39.289Z,16.47
2022-08-17T04:22:39.258Z,16.40
2022-08-17T04:23:39.244Z,16.40
2022-08-17T04:24:39.228Z,16.36
2022-08-17T04:25:39.224Z,16.37
2022-08-17T04:26:52.740Z,16.34
2022-08-17T04:27:40.213Z,16.37
2022-08-17T04:28:39.178Z,16.32
2022-08-17T04:29:54.122Z,16.36
2022-08-17T04:30:40.177Z,16.29
2022-08-17T04:31:39.137Z,16.41
2022-08-17T04:33:05.270Z,16.50
2022-08-17T04:33:40.138Z,16.42
2022-08-17T04:34:39.098Z,16.34
2022-08-17T04:35:39.091Z,16.36
2022-08-17T04:36:39.071Z,16.50
2022-08-17T04:37:39.055Z,16.42
2022-08-17T04:38:39.046Z,16.48
2022-08-17T04:39:39.064Z,16.41
2022-08-17T04:40:39.015Z,16.50
2022-08-17T04:41:39.003Z,16.47
2022-08-17T04:42:38.991Z,16.44
2022-08-17T04:43:38.975Z,16.60
2022-08-17T04:44:38.958Z,16.63
2022-08-17T04:45:38.955Z,16.51
2022-08-17T04:46:38.934Z,16.55
2022-08-17T04:47:38.921Z,16.59
2022-08-17T04:48:38.906Z,16.67
2022-08-17T04:49:38.900Z,16.67
2022-08-17T04:50:38.875Z,16.72
2022-08-17T04:51:38.866Z,16.90
2022-08-17T04:52:53.333Z,16.88
2022-08-17T04:53:39.860Z,16.82
2022-08-17T04:54:38.829Z,16.88
2022-08-17T04:55:38.815Z,17.02
2022-08-17T04:56:38.798Z,16.95
2022-08-17T04:57:44.508Z,16.95
2022-08-17T04:58:39.802Z,16.99
2022-08-17T04:59:38.760Z,17.17
2022-08-17T05:00:38.743Z,17.12
2022-08-17T05:01:38.769Z,17.17
2022-08-17T05:02:38.715Z,17.18
2022-08-17T05:03:39.720Z,17.21
2022-08-17T05:04:38.686Z,17.25
2022-08-17T05:05:38.677Z,17.30
2022-08-17T05:06:38.662Z,17.25
2022-08-17T05:07:38.652Z,17.28
2022-08-17T05:08:38.638Z,17.35
2022-08-17T05:09:38.628Z,17.39
2022-08-17T05:10:45.556Z,17.42
2022-08-17T05:11:39.621Z,17.33
2022-08-17T05:12:38.586Z,17.45
2022-08-17T05:13:38.575Z,17.49
2022-08-17T05:14:38.556Z,17.45
2022-08-17T05:15:38.549Z,17.45
2022-08-17T05:16:39.562Z,17.54
2022-08-17T05:17:38.525Z,17.54
2022-08-17T05:18:38.499Z,17.51
2022-08-17T05:19:38.486Z,17.58
2022-08-17T05:20:38.477Z,17.57
2022-08-17T05:21:38.460Z,17.49
2022-08-17T05:22:38.448Z,17.58
2022-08-17T05:23:43.124Z,17.58
2022-08-17T05:24:43.449Z,17.62
2022-08-17T05:25:39.440Z,17.47
2022-08-17T05:26:38.390Z,17.60
2022-08-17T05:27:38.382Z,17.63
2022-08-17T05:28:38.365Z,17.71
2022-08-17T05:29:38.355Z,17.79
2022-08-17T05:30:38.340Z,17.83
2022-08-17T05:31:38.330Z,17.86
2022-08-17T05:32:40.346Z,17.86
2022-08-17T05:33:41.499Z,17.87
2022-08-17T05:34:39.308Z,17.92
2022-08-17T05:35:38.284Z,18.02
2022-08-17T05:36:44.055Z,18.09
2022-08-17T05:37:39.274Z,18.20
2022-08-17T05:38:38.243Z,18.20
2022-08-17T05:39:38.282Z,18.25
2022-08-17T05:40:38.209Z,18.34
2022-08-17T05:41:38.198Z,18.34
2022-08-17T05:42:38.180Z,18.50
2022-08-17T05:43:38.163Z,18.50
2022-08-17T05:44:38.150Z,18.50
2022-08-17T05:45:55.795Z,18.65
2022-08-17T05:46:39.144Z,18.82
2022-08-17T05:47:38.110Z,18.93
2022-08-17T05:48:39.711Z,19.13
2022-08-17T05:49:38.083Z,19.35
2022-08-17T05:50:38.075Z,19.50
2022-08-17T05:51:38.060Z,19.72
2022-08-17T05:52:38.043Z,19.98
2022-08-17T05:53:38.037Z,20.15
2022-08-17T05:54:38.012Z,20.20
2022-08-17T05:55:38.005Z,20.33
2022-08-17T05:56:37.985Z,20.40
2022-08-17T05:57:38.405Z,20.44
2022-08-17T05:58:37.963Z,20.58
2022-08-17T05:59:37.960Z,20.50
2022-08-17T06:00:41.804Z,20.58
2022-08-17T06:01:37.975Z,20.58
2022-08-17T06:02:37.913Z,20.58
2022-08-17T06:03:37.901Z,20.46
2022-08-17T06:04:37.887Z,20.56
2022-08-17T06:05:37.873Z,20.57
2022-08-17T06:06:37.853Z,20.79
2022-08-17T06:07:37.849Z,21.06
2022-08-17T06:08:37.833Z,21.22
2022-08-17T06:09:37.816Z,21.24
2022-08-17T06:10:37.856Z,21.51
2022-08-17T06:11:37.789Z,21.63
2022-08-17T06:12:37.772Z,21.89
2022-08-17T06:13:37.760Z,21.96
2022-08-17T06:14:37.756Z,21.94
2022-08-17T06:15:37.744Z,21.96
2022-08-17T06:16:37.725Z,22.08
2022-08-17T06:17:37.759Z,22.14
2022-08-17T06:18:37.697Z,21.89
2022-08-17T06:19:37.683Z,21.77
2022-08-17T06:20:37.669Z,21.67
2022-08-17T06:21:37.658Z,21.64
2022-08-17T06:22:37.636Z,21.63
2022-08-17T06:23:37.628Z,21.49
2022-08-17T06:24:37.614Z,21.55
2022-08-17T06:25:37.599Z,21.71
2022-08-17T06:26:42.778Z,21.93
2022-08-17T06:27:37.579Z,22.36
2022-08-17T06:28:37.562Z,22.52
2022-08-17T06:29:37.553Z,23.00
2022-08-17T06:31:00.373Z,23.03
2022-08-17T06:31:38.542Z,23.07
2022-08-17T06:32:37.508Z,23.06
2022-08-17T06:33:37.500Z,22.97
2022-08-17T06:34:37.483Z,22.82
2022-08-17T06:35:37.465Z,22.70
2022-08-17T06:36:37.453Z,22.63
2022-08-17T06:37:37.439Z,22.84
2022-08-17T06:38:38.783Z,22.94
2022-08-17T06:39:37.505Z,23.04
2022-08-17T06:40:37.400Z,23.06
2022-08-17T06:41:38.053Z,22.89
2022-08-17T06:43:06.576Z,22.86
2022-08-17T06:43:38.392Z,22.93
2022-08-17T06:44:42.229Z,22.82
2022-08-17T06:45:38.361Z,23.00
2022-08-17T06:46:37.319Z,23.18
2022-08-17T06:47:37.314Z,23.25
2022-08-17T06:48:37.294Z,23.47
2022-08-17T06:49:37.286Z,23.67
2022-08-17T06:50:37.283Z,23.97
2022-08-17T06:51:37.263Z,23.86
2022-08-17T06:52:46.536Z,23.81
2022-08-17T06:53:38.248Z,23.59
2022-08-17T06:54:37.221Z,23.60
2022-08-17T06:55:38.226Z,23.45
2022-08-17T06:56:53.443Z,23.47
2022-08-17T06:57:38.199Z,23.38
2022-08-17T06:58:37.165Z,23.41
2022-08-17T06:59:55.702Z,23.41
2022-08-17T07:00:38.241Z,23.39
2022-08-17T07:01:37.175Z,23.52
2022-08-17T07:02:52.052Z,23.56
2022-08-17T07:03:38.229Z,23.64
2022-08-17T07:04:37.092Z,23.67
2022-08-17T07:05:37.080Z,23.78
2022-08-17T07:06:37.761Z,23.74
2022-08-17T07:07:37.047Z,23.63
2022-08-17T07:08:37.036Z,23.67
2022-08-17T07:09:37.023Z,23.64
2022-08-17T07:10:37.005Z,23.68
2022-08-17T07:11:36.988Z,23.59
2022-08-17T07:12:36.982Z,23.67
2022-08-17T07:13:36.968Z,23.71
2022-08-17T07:14:36.957Z,23.69
2022-08-17T07:15:36.935Z,23.75
2022-08-17T07:16:36.928Z,23.78
2022-08-17T07:17:47.246Z,23.90
2022-08-17T07:18:37.942Z,24.08
2022-08-17T07:19:36.889Z,24.27
2022-08-17T07:20:36.881Z,24.51
2022-08-17T07:21:36.862Z,24.64
2022-08-17T07:22:51.916Z,24.74
2022-08-17T07:23:37.865Z,24.90
2022-08-17T07:24:36.824Z,25.23
2022-08-17T07:25:36.810Z,25.12
2022-08-17T07:26:36.799Z,25.11
2022-08-17T07:27:36.787Z,25.29
2022-08-17T07:28:36.772Z,25.59
2022-08-17T07:29:36.753Z,26.00
2022-08-17T07:30:46.788Z,26.35
2022-08-17T07:31:37.758Z,26.34
2022-08-17T07:32:36.723Z,26.46
2022-08-17T07:33:36.756Z,26.57
2022-08-17T07:34:36.692Z,26.66
2022-08-17T07:35:40.783Z,26.76
2022-08-17T07:36:36.672Z,26.96
2022-08-17T07:37:36.651Z,26.88
2022-08-17T07:38:36.638Z,27.01
2022-08-17T07:39:36.673Z,26.75
2022-08-17T07:40:37.669Z,26.56
2022-08-17T07:41:53.253Z,26.34
2022-08-17T07:42:40.693Z,26.21
2022-08-17T07:43:36.574Z,26.06
2022-08-17T07:44:36.913Z,25.82
2022-08-17T07:45:36.550Z,25.59
2022-08-17T07:46:36.545Z,25.48
2022-08-17T07:47:36.524Z,25.20
2022-08-17T07:48:36.519Z,25.22
2022-08-17T07:49:36.495Z,25.19
2022-08-17T07:50:36.484Z,25.22
2022-08-17T07:51:36.498Z,24.98
2022-08-17T07:52:51.274Z,24.99
2022-08-17T07:53:37.485Z,25.04
2022-08-17T07:54:36.433Z,24.98
2022-08-17T07:55:36.421Z,24.99
2022-08-17T07:56:36.408Z,24.92
2022-08-17T07:57:36.411Z,24.90
2022-08-17T07:58:36.385Z,24.93
2022-08-17T07:59:36.367Z,24.83
2022-08-17T08:00:36.356Z,24.82
2022-08-17T08:01:39.639Z,24.75
2022-08-17T08:02:36.379Z,24.71
2022-08-17T08:03:36.314Z,24.66
2022-08-17T08:04:59.839Z,24.66
2022-08-17T08:05:50.558Z,24.74
2022-08-17T08:06:37.304Z,24.63
2022-08-17T08:07:36.273Z,24.53
2022-08-17T08:08:36.253Z,24.45
2022-08-17T08:09:36.237Z,24.45
2022-08-17T08:10:36.226Z,24.42
2022-08-17T08:11:37.005Z,24.33
2022-08-17T08:12:36.199Z,24.41
2022-08-17T08:13:36.184Z,24.33
2022-08-17T08:14:36.189Z,24.23
2022-08-17T08:15:36.150Z,24.23
2022-08-17T08:16:36.141Z,24.18
2022-08-17T08:17:36.124Z,24.19
2022-08-17T08:18:54.817Z,24.11
2022-08-17T08:19:37.117Z,23.99
2022-08-17T08:20:52.200Z,23.99
2022-08-17T08:21:37.099Z,23.99
2022-08-17T08:22:36.076Z,23.89
2022-08-17T08:23:36.050Z,23.86
2022-08-17T08:24:36.047Z,23.87
2022-08-17T08:25:36.025Z,23.72
2022-08-17T08:26:36.014Z,23.59
2022-08-17T08:27:35.994Z,23.50
2022-08-17T08:28:35.991Z,23.56
2022-08-17T08:29:35.967Z,23.41
2022-08-17T08:30:35.958Z,23.42
2022-08-17T08:31:41.625Z,23.45
2022-08-17T08:32:36.949Z,23.34
2022-08-17T08:33:35.911Z,23.37
2022-08-17T08:34:47.415Z,23.26
2022-08-17T08:35:36.925Z,23.25
2022-08-17T08:36:56.979Z,23.23
2022-08-17T08:37:42.456Z,23.18
2022-08-17T08:38:36.882Z,23.15
2022-08-17T08:39:35.882Z,23.07
2022-08-17T08:40:35.831Z,23.12
2022-08-17T08:41:35.822Z,23.03
2022-08-17T08:42:35.812Z,23.00
2022-08-17T08:43:35.784Z,23.12
2022-08-17T08:44:59.958Z,23.07
2022-08-17T08:45:37.129Z,23.11
2022-08-17T08:46:35.749Z,23.18
2022-08-17T08:47:35.738Z,23.07
2022-08-17T08:48:53.214Z,23.16
2022-08-17T08:50:01.923Z,23.07
2022-08-17T08:50:37.653Z,23.03
2022-08-17T08:51:35.679Z,23.06
2022-08-17T08:52:35.678Z,23.06
2022-08-17T08:53:35.653Z,23.09
2022-08-17T08:54:35.638Z,23.14
2022-08-17T08:55:35.627Z,23.41
2022-08-17T08:56:35.616Z,23.37
2022-08-17T08:57:35.595Z,23.63
2022-08-17T08:58:41.318Z,23.63
2022-08-17T08:59:41.806Z,23.71
2022-08-17T09:00:35.559Z,23.71
2022-08-17T09:01:35.588Z,23.79
2022-08-17T09:02:35.537Z,23.72
2022-08-17T09:03:51.766Z,23.78
2022-08-17T09:04:55.918Z,23.87
2022-08-17T09:05:36.524Z,23.87
2022-08-17T09:06:39.622Z,24.04
2022-08-17T09:07:35.464Z,24.18
2022-08-17T09:08:35.460Z,24.26
2022-08-17T09:09:35.435Z,24.27
2022-08-17T09:10:35.434Z,24.27
2022-08-17T09:11:35.420Z,24.27
2022-08-17T09:12:36.431Z,24.36
2022-08-17T09:13:35.395Z,24.19
2022-08-17T09:14:46.834Z,24.24
2022-08-17T09:15:36.393Z,24.21
2022-08-17T09:16:35.359Z,24.19
2022-08-17T09:17:35.336Z,24.09
2022-08-17T09:19:00.699Z,24.21
2022-08-17T09:19:36.333Z,24.06
2022-08-17T09:20:35.297Z,24.06
2022-08-17T09:21:35.279Z,24.08
2022-08-17T09:22:35.289Z,24.12
2022-08-17T09:23:35.253Z,24.21
2022-08-17T09:24:35.248Z,24.21
2022-08-17T09:25:35.229Z,24.15
2022-08-17T09:26:35.224Z,24.23
2022-08-17T09:27:35.215Z,24.09
2022-08-17T09:28:35.212Z,24.24
2022-08-17T09:29:35.368Z,24.26
2022-08-17T09:30:35.173Z,24.31
2022-08-17T09:31:35.157Z,24.36
2022-08-17T09:32:36.169Z,24.37
2022-08-17T09:33:35.129Z,24.33
2022-08-17T09:34:35.118Z,24.29
2022-08-17T09:35:37.211Z,24.41
2022-08-17T09:36:35.091Z,24.41
2022-08-17T09:37:35.078Z,24.41
2022-08-17T09:38:35.067Z,24.44
2022-08-17T09:39:35.083Z,24.37
2022-08-17T09:40:35.041Z,24.49
2022-08-17T09:41:35.023Z,24.41
2022-08-17T09:42:35.008Z,24.37
2022-08-17T09:43:34.995Z,24.41
2022-08-17T09:44:34.987Z,24.44
2022-08-17T09:45:34.964Z,24.48
2022-08-17T09:46:34.954Z,24.51
2022-08-17T09:47:34.937Z,24.51
2022-08-17T09:48:35.077Z,24.61
2022-08-17T09:49:34.917Z,24.53
2022-08-17T09:51:03.159Z,24.55
2022-08-17T09:51:35.914Z,24.64
2022-08-17T09:52:34.877Z,24.63
2022-08-17T09:53:34.866Z,24.64
2022-08-17T09:54:39.017Z,24.80
2022-08-17T09:55:34.836Z,24.84
2022-08-17T09:56:34.834Z,24.82
2022-08-17T09:57:34.813Z,25.04
2022-08-17T09:58:34.803Z,25.14
2022-08-17T09:59:38.341Z,25.19
2022-08-17T10:00:34.773Z,25.14
2022-08-17T10:01:34.838Z,25.59
2022-08-17T10:02:34.747Z,25.85
2022-08-17T10:03:34.731Z,26.03
2022-08-17T10:04:34.719Z,26.28
2022-08-17T10:05:34.702Z,26.53
2022-08-17T10:06:34.697Z,26.66
2022-08-17T10:07:34.679Z,26.71
2022-08-17T10:08:34.673Z,26.75
2022-08-17T10:09:34.650Z,26.81
2022-08-17T10:10:34.646Z,26.91
2022-08-17T10:11:34.633Z,26.94
2022-08-17T10:12:35.639Z,27.09
2022-08-17T10:13:34.601Z,27.09
2022-08-17T10:14:36.355Z,27.30
2022-08-17T10:15:34.788Z,27.63
2022-08-17T10:16:34.563Z,27.69
2022-08-17T10:17:34.545Z,27.88
2022-08-17T10:18:34.541Z,27.76
2022-08-17T10:19:34.527Z,27.65
2022-08-17T10:20:34.513Z,27.53
2022-08-17T10:21:34.497Z,27.38
2022-08-17T10:22:37.808Z,27.12
2022-08-17T10:23:34.478Z,27.02
2022-08-17T10:24:34.472Z,27.01
2022-08-17T10:25:49.070Z,26.97
2022-08-17T10:26:43.046Z,27.11
2022-08-17T10:27:35.444Z,27.09
2022-08-17T10:28:34.414Z,27.23
2022-08-17T10:29:47.438Z,27.34
2022-08-17T10:30:35.409Z,27.43
2022-08-17T10:31:35.663Z,27.38
2022-08-17T10:32:34.362Z,27.43
2022-08-17T10:33:34.348Z,27.27
2022-08-17T10:34:36.205Z,27.06
2022-08-17T10:35:35.343Z,26.93
2022-08-17T10:36:34.312Z,26.86
2022-08-17T10:37:34.293Z,26.72
2022-08-17T10:38:34.297Z,26.73
2022-08-17T10:39:34.329Z,26.66
2022-08-17T10:40:35.286Z,26.61
2022-08-17T10:41:39.686Z,26.59
2022-08-17T10:42:35.259Z,26.65
2022-08-17T10:43:34.223Z,26.68
2022-08-17T10:44:38.695Z,26.78
2022-08-17T10:45:35.232Z,26.88
2022-08-17T10:46:34.186Z,26.65
2022-08-17T10:47:52.718Z,26.66
2022-08-17T10:48:35.531Z,26.60
2022-08-17T10:49:34.145Z,26.41
2022-08-17T10:50:34.142Z,26.44
2022-08-17T10:51:34.119Z,26.35
2022-08-17T10:52:34.111Z,26.20
2022-08-17T10:53:34.091Z,26.21
2022-08-17T10:54:34.085Z,26.29
2022-08-17T10:55:34.066Z,26.29
2022-08-17T10:56:34.063Z,26.28
2022-08-17T10:57:34.039Z,26.28
2022-08-17T10:58:34.025Z,26.24
2022-08-17T10:59:34.017Z,26.12
2022-08-17T11:00:34.054Z,26.12
2022-08-17T11:01:34.105Z,26.04
2022-08-17T11:02:33.974Z,26.06
2022-08-17T11:03:33.957Z,25.97
2022-08-17T11:04:33.952Z,25.86
2022-08-17T11:05:33.943Z,25.86
2022-08-17T11:06:33.939Z,25.79
2022-08-17T11:07:33.910Z,25.81
2022-08-17T11:08:33.901Z,25.71
2022-08-17T11:09:33.879Z,25.79
2022-08-17T11:10:33.876Z,25.76
2022-08-17T11:11:33.856Z,25.76
2022-08-17T11:12:33.850Z,25.69
2022-08-17T11:13:33.832Z,25.72
2022-08-17T11:14:33.816Z,25.71
2022-08-17T11:15:33.811Z,25.60
2022-08-17T11:16:33.796Z,25.59
2022-08-17T11:17:33.782Z,25.51
2022-08-17T11:18:33.811Z,25.45
2022-08-17T11:19:33.756Z,25.38
2022-08-17T11:20:33.734Z,25.19
2022-08-17T11:21:33.729Z,25.23
2022-08-17T11:22:33.849Z,25.16
2022-08-17T11:23:33.703Z,25.07
2022-08-17T11:24:33.705Z,25.04
2022-08-17T11:25:33.680Z,24.90
2022-08-17T11:26:33.665Z,24.93
2022-08-17T11:27:33.645Z,24.83
2022-08-17T11:28:33.632Z,24.66
2022-08-17T11:29:33.624Z,24.55
2022-08-17T11:30:33.607Z,24.55
2022-08-17T11:31:38.787Z,24.42
2022-08-17T11:32:34.610Z,24.42
2022-08-17T11:33:33.567Z,24.48
2022-08-17T11:34:33.557Z,24.37
2022-08-17T11:35:33.554Z,24.46
2022-08-17T11:36:33.528Z,24.42
2022-08-17T11:37:33.516Z,24.37
2022-08-17T11:38:33.501Z,24.41
2022-08-17T11:39:33.520Z,24.49
2022-08-17T11:40:33.471Z,24.53
2022-08-17T11:41:33.468Z,24.48
2022-08-17T11:42:33.448Z,24.66
2022-08-17T11:43:33.438Z,24.67
2022-08-17T11:44:33.419Z,24.87
2022-08-17T11:45:33.414Z,24.92
2022-08-17T11:46:33.396Z,25.07
2022-08-17T11:47:33.388Z,25.16
2022-08-17T11:48:33.695Z,25.35
2022-08-17T11:49:33.357Z,25.53
2022-08-17T11:50:33.539Z,25.76
2022-08-17T11:51:33.334Z,25.75
2022-08-17T11:52:33.315Z,25.83
2022-08-17T11:53:33.307Z,26.01
2022-08-17T11:54:34.602Z,26.00
2022-08-17T11:55:36.655Z,26.17
2022-08-17T11:56:33.261Z,26.17
2022-08-17T11:57:33.259Z,26.44
2022-08-17T11:58:33.234Z,26.72
2022-08-17T11:59:33.227Z,26.78
2022-08-17T12:00:33.209Z,26.98
2022-08-17T12:01:33.204Z,26.98
2022-08-17T12:02:33.185Z,27.01
2022-08-17T12:03:33.399Z,27.03
2022-08-17T12:04:33.239Z,26.97
2022-08-17T12:05:33.152Z,27.12
2022-08-17T12:06:33.132Z,27.18
2022-08-17T12:07:33.124Z,27.23
2022-08-17T12:08:33.111Z,27.40
2022-08-17T12:09:33.096Z,27.42
2022-08-17T12:10:33.077Z,27.24
2022-08-17T12:11:55.601Z,27.20
2022-08-17T12:12:34.080Z,27.11
2022-08-17T12:13:38.669Z,26.93
2022-08-17T12:15:08.032Z,26.94
2022-08-17T12:15:34.048Z,26.93
2022-08-17T12:16:33.005Z,27.20
2022-08-17T12:17:40.615Z,27.53
2022-08-17T12:18:34.006Z,27.76
2022-08-17T12:19:32.969Z,28.52
2022-08-17T12:20:32.953Z,28.97
2022-08-17T12:21:32.939Z,29.27
2022-08-17T12:22:32.922Z,29.60
2022-08-17T12:23:32.910Z,29.99
2022-08-17T12:24:32.900Z,30.67
2022-08-17T12:25:32.962Z,30.93
2022-08-17T12:26:32.876Z,31.22
2022-08-17T12:27:56.823Z,31.40
2022-08-17T12:28:33.880Z,31.50
2022-08-17T12:29:38.763Z,31.60
2022-08-17T12:30:33.853Z,32.05
2022-08-17T12:31:32.815Z,32.16
2022-08-17T12:32:32.800Z,32.05
2022-08-17T12:33:32.788Z,31.84
2022-08-17T12:34:32.770Z,31.91
2022-08-17T12:35:32.763Z,31.67
2022-08-17T12:36:32.746Z,31.46
2022-08-17T12:37:32.744Z,31.34
2022-08-17T12:38:33.668Z,31.30
2022-08-17T12:39:33.992Z,31.31
2022-08-17T12:40:32.693Z,31.27
2022-08-17T12:41:32.690Z,31.41
2022-08-17T12:42:32.675Z,31.87
2022-08-17T12:43:32.668Z,32.06
2022-08-17T12:44:32.651Z,32.17
2022-08-17T12:45:32.640Z,31.97
2022-08-17T12:46:32.625Z,31.87
2022-08-17T12:47:32.617Z,32.14
2022-08-17T12:48:32.604Z,32.19
2022-08-17T12:49:32.593Z,32.27
2022-08-17T12:50:32.571Z,32.61
2022-08-17T12:51:32.561Z,32.88
2022-08-17T12:52:32.549Z,32.98